createdAt,value
2022-10-06T00:08:49.992Z,13.60
2022-10-06T00:18:53.695Z,13.20
2022-10-06T00:28:58.734Z,13.10
2022-10-06T00:39:02.570Z,13.00
2022-10-06T00:49:16.408Z,13.20
2022-10-06T00:59:20.850Z,12.70
2022-10-06T01:09:26.825Z,12.60
2022-10-06T01:19:47.223Z,12.70
2022-10-06T01:29:55.356Z,13.00
2022-10-06T01:39:59.024Z,13.50
2022-10-06T01:50:05.444Z,13.90
2022-10-06T02:00:12.825Z,14.50
2022-10-06T02:10:18.060Z,15.00
2022-10-06T02:20:22.514Z,15.10
2022-10-06T02:30:27.456Z,15.20
2022-10-06T02:40:31.066Z,15.20
2022-10-06T02:50:37.163Z,15.00
2022-10-06T03:00:40.717Z,14.90
2022-10-06T03:10:46.315Z,14.90
2022-10-06T03:20:50.455Z,14.90
2022-10-06T03:31:03.552Z,14.90
2022-10-06T03:41:10.220Z,15.00
2022-10-06T03:51:18.209Z,14.90
2022-10-06T04:01:26.388Z,15.00
2022-10-06T04:11:34.442Z,15.00
2022-10-06T04:21:39.844Z,14.90
2022-10-06T04:31:45.433Z,14.80
2022-10-06T04:41:49.056Z,14.70
2022-10-06T04:51:54.104Z,14.70
2022-10-06T05:01:58.148Z,14.70
2022-10-06T05:12:03.190Z,14.60
2022-10-06T05:22:06.848Z,14.60
2022-10-06T05:32:11.838Z,14.40
2022-10-06T05:42:15.510Z,14.10
2022-10-06T05:52:20.646Z,13.90
2022-10-06T06:02:24.508Z,13.80
2022-10-06T06:12:29.554Z,13.80
2022-10-06T06:22:34.143Z,14.00
2022-10-06T06:32:39.611Z,14.00
2022-10-06T06:42:43.343Z,13.90
2022-10-06T06:52:48.317Z,13.90
2022-10-06T07:02:56.059Z,14.00
2022-10-06T07:13:01.220Z,14.20
2022-10-06T07:23:23.242Z,14.30
2022-10-06T07:33:29.327Z,14.60
2022-10-06T07:43:33.082Z,14.70
2022-10-06T07:53:39.151Z,14.80
2022-10-06T08:03:45.563Z,15.00
2022-10-06T08:14:01.480Z,15.10
2022-10-06T08:24:07.658Z,15.30
2022-10-06T08:34:12.791Z,15.40
2022-10-06T08:44:26.613Z,15.40
2022-10-06T08:54:39.859Z,15.60
2022-10-06T09:04:43.764Z,15.80
2022-10-06T09:14:54.667Z,16.00
2022-10-06T09:25:03.068Z,16.40
2022-10-06T09:35:19.847Z,16.50
2022-10-06T09:45:28.993Z,16.50
2022-10-06T09:55:52.056Z,16.60
2022-10-06T10:05:56.776Z,16.60
2022-10-06T10:16:04.028Z,16.50
2022-10-06T10:26:25.790Z,16.40
2022-10-06T10:36:37.917Z,16.50
2022-10-06T10:46:53.027Z,16.50
2022-10-06T10:57:03.505Z,16.70
2022-10-06T11:07:23.361Z,16.90
2022-10-06T11:17:44.276Z,17.10
2022-10-06T11:28:02.927Z,17.10
2022-10-06T11:38:19.950Z,17.00
2022-10-06T11:48:27.530Z,17.10
2022-10-06T11:59:13.471Z,17.20
2022-10-06T12:09:53.151Z,17.30
2022-10-06T12:20:11.955Z,17.40
2022-10-06T12:30:23.111Z,17.40
2022-10-06T12:41:04.393Z,17.50
2022-10-06T12:51:25.472Z,17.40
2022-10-06T13:01:31.420Z,17.40
2022-10-06T13:11:35.368Z,17.50
2022-10-06T13:21:40.823Z,17.80
2022-10-06T13:31:52.666Z,17.90
2022-10-06T13:42:03.372Z,17.90
2022-10-06T13:52:18.445Z,17.90
2022-10-06T14:02:33.461Z,18.00
2022-10-06T14:12:43.729Z,18.00
2022-10-06T14:22:48.684Z,18.00
2022-10-06T14:32:52.259Z,18.00
2022-10-06T14:42:57.189Z,18.00
2022-10-06T14:53:01.202Z,18.00
2022-10-06T15:03:07.029Z,18.00
2022-10-06T15:13:12.430Z,18.00
2022-10-06T15:23:17.468Z,17.80
2022-10-06T15:33:21.146Z,17.80
2022-10-06T15:43:46.057Z,17.70
2022-10-06T15:53:52.673Z,17.60
2022-10-06T16:03:59.108Z,17.50
2022-10-06T16:14:02.850Z,17.50
2022-10-06T16:24:08.099Z,17.50
2022-10-06T16:34:12.339Z,17.00
2022-10-06T16:44:18.143Z,16.40
2022-10-06T16:54:21.741Z,15.80
2022-10-06T17:04:27.200Z,15.30
2022-10-06T17:14:34.499Z,14.60
2022-10-06T17:24:39.649Z,14.10
2022-10-06T17:34:43.366Z,13.80
2022-10-06T17:44:48.363Z,13.50
2022-10-06T17:54:52.344Z,13.20
2022-10-06T18:04:57.574Z,12.80
2022-10-06T18:15:04.376Z,12.50
2022-10-06T18:25:16.576Z,12.20
2022-10-06T18:46:03.418Z,11.80
2022-10-06T18:56:10.871Z,11.50
2022-10-06T19:06:16.592Z,11.40
2022-10-06T19:16:28.429Z,11.50
2022-10-06T19:26:34.045Z,11.40
2022-10-06T19:36:39.596Z,11.30
2022-10-06T19:46:44.618Z,10.90
2022-10-06T19:56:49.141Z,10.80
2022-10-06T20:06:54.412Z,10.80
2022-10-06T20:16:58.431Z,10.60
2022-10-06T20:27:03.488Z,10.10
2022-10-06T20:37:07.380Z,10.10
2022-10-06T20:47:13.519Z,10.00
2022-10-06T20:57:17.210Z,9.90
2022-10-06T21:07:22.197Z,9.70
2022-10-06T21:17:25.916Z,9.50
2022-10-06T21:27:30.942Z,9.30
2022-10-06T21:37:35.517Z,9.30
2022-10-06T21:47:40.748Z,9.20
2022-10-06T21:57:44.711Z,9.00
2022-10-06T22:07:49.961Z,8.90
2022-10-06T22:17:53.559Z,8.90
2022-10-06T22:27:58.569Z,8.70
2022-10-06T22:38:08.357Z,8.60
2022-10-06T22:48:22.841Z,8.50
2022-10-06T22:58:27.147Z,8.40
2022-10-06T23:08:35.275Z,8.30
2022-10-06T23:18:41.157Z,7.90
2022-10-06T23:28:47.170Z,8.00
2022-10-06T23:38:51.045Z,8.10
2022-10-06T23:48:55.975Z,7.90
2022-10-06T23:58:59.784Z,7.80
